Terminal Aerodrome Forecast
Issued by NWS

Home | Current Version | Previous Version | Text Only | Print | Product List | Glossary On
Versions: 1 2 3 4 5 6 7 8 9 10 11 12 13 14 15 16 17 18 19
000
FTUS44 KMAF 192152 AAA
TAFINK
TAF AMD
KINK 192152Z 1922/2018 24007KT P6SM OVC130
     FM200200 27006KT P6SM BKN200
     FM201300 28007KT P6SM SCT250
     FM201600 30010G20KT P6SM SCT035 SCT250=

USA.gov is the U.S. government's official web portal to all federal, state and local government web resources and services.